Time;durP1;ratioP1;P1;durP2;ratioP2;P2;SDS_P1;SDS_P2;PMS_P1;PMS_P2;Temp;Humidity;BMP_temperature;BMP_pressure;BME280_temperature;BME280_humidity;BME280_pressure;Samples;Min_cycle;Max_cycle;Signal;HPM_P1;HPM_P2
2023/09/06 00:00:48;;;;;;;;;;;;;;;25.70;48.83;101318.97;4194825;28;20297;-60
2023/09/06 00:02:51;;;;;;;;;;;;;;;25.70;48.92;101315.41;4195681;28;19929;-60
2023/09/06 00:04:54;;;;;;;;;;;;;;;25.67;49.09;101311.97;4195400;28;20366;-60
2023/09/06 00:06:56;;;;;;;;;;;;;;;25.66;48.94;101313.00;4195528;28;20312;-60
2023/09/06 00:08:58;;;;;;;;;;;;;;;25.65;49.44;101315.81;4195796;27;19928;-61
2023/09/06 00:11:04;;;;;;;;;;;;;;;25.65;49.38;101315.81;4194646;28;19925;-61
2023/09/06 00:13:06;;;;;;;;;;;;;;;25.64;49.06;101309.59;4195383;28;19924;-61
2023/09/06 00:15:09;;;;;;;;;;;;;;;25.63;49.19;101315.13;4195584;28;20003;-60
2023/09/06 00:17:10;;;;;;;;;;;;;;;25.62;49.30;101310.72;4195101;28;19924;-60
2023/09/06 00:19:12;;;;;;;;;;;;;;;25.62;49.28;101308.84;4210750;28;19931;-60
2023/09/06 00:21:14;;;;;;;;;;;;;;;25.61;49.22;101311.69;4194626;28;19924;-60
2023/09/06 00:23:17;;;;;;;;;;;;;;;25.60;49.13;101308.16;4195479;28;19925;-61
2023/09/06 00:25:18;;;;;;;;;;;;;;;25.58;49.24;101306.56;4195008;28;20011;-60
2023/09/06 00:27:20;;;;;;;;;;;;;;;25.59;49.55;101310.97;4194247;28;19978;-60
2023/09/06 00:29:22;;;;;;;;;;;;;;;25.58;49.25;101312.84;4195431;28;20395;-60
2023/09/06 00:31:23;;;;;;;;;;;;;;;25.56;49.25;101312.13;4194312;28;19969;-61
2023/09/06 00:33:26;;;;;;;;;;;;;;;25.56;49.28;101313.97;4194917;28;19948;-61
2023/09/06 00:35:28;;;;;;;;;;;;;;;25.56;49.29;101311.28;4195294;28;19944;-60
2023/09/06 00:37:40;;;;;;;;;;;;;;;25.55;49.40;101304.19;4195080;28;19925;-60
2023/09/06 00:39:41;;;;;;;;;;;;;;;25.53;49.67;101301.63;4195283;28;20312;-61
2023/09/06 00:41:44;;;;;;;;;;;;;;;25.53;49.39;101301.63;4194276;28;20285;-61
2023/09/06 00:43:46;;;;;;;;;;;;;;;25.52;49.36;101305.31;4195194;27;19964;-60
2023/09/06 00:45:50;;;;;;;;;;;;;;;25.51;49.61;101309.00;4194987;28;19925;-61
2023/09/06 00:47:55;;;;;;;;;;;;;;;25.51;49.37;101311.69;4194808;28;20003;-61
2023/09/06 00:49:58;;;;;;;;;;;;;;;25.50;49.38;101312.66;4195137;28;19979;-61
2023/09/06 00:51:59;;;;;;;;;;;;;;;25.49;49.84;101306.44;4194072;28;19967;-60
2023/09/06 00:54:01;;;;;;;;;;;;;;;25.48;49.74;101304.75;4194966;28;19924;-60
2023/09/06 00:56:03;;;;;;;;;;;;;;;25.47;49.57;101303.03;4195000;28;19951;-61
2023/09/06 00:58:06;;;;;;;;;;;;;;;25.46;49.87;101304.00;4195034;28;19924;-60
2023/09/06 01:00:23;;;;;;;;;;;;;;;25.46;49.64;101305.88;4194784;28;20339;-60
2023/09/06 01:02:25;;;;;;;;;;;;;;;25.44;49.74;101305.97;4194338;28;19925;-61
2023/09/06 01:04:26;;;;;;;;;;;;;;;25.44;49.87;101302.44;4195050;28;19926;-60
2023/09/06 01:06:29;;;;;;;;;;;;;;;25.44;49.57;101305.16;4194587;28;20346;-60
2023/09/06 01:08:36;;;;;;;;;;;;;;;25.43;49.75;101303.44;4194781;28;19925;-61
2023/09/06 01:10:37;;;;;;;;;;;;;;;25.42;49.38;101307.09;4193884;28;20346;-61
2023/09/06 01:12:39;;;;;;;;;;;;;;;25.41;49.49;101302.72;4194741;28;20312;-60
2023/09/06 01:14:41;;;;;;;;;;;;;;;25.40;49.58;101301.88;4194852;27;19993;-61
2023/09/06 01:16:45;;;;;;;;;;;;;;;25.40;49.37;101301.03;4194246;28;20374;-60
2023/09/06 01:18:47;;;;;;;;;;;;;;;25.39;49.49;101305.56;4194709;28;19929;-60
2023/09/06 01:20:56;;;;;;;;;;;;;;;25.38;49.86;101303.00;4193794;28;19928;-60
2023/09/06 01:23:06;;;;;;;;;;;;;;;25.36;49.56;101301.25;4194705;28;20393;-60
2023/09/06 01:25:08;;;;;;;;;;;;;;;25.35;50.00;101302.25;4194547;28;20309;-60
2023/09/06 01:27:12;;;;;;;;;;;;;;;25.36;49.71;101300.44;4194664;28;19970;-61
2023/09/06 01:29:13;;;;;;;;;;;;;;;25.34;50.04;101303.22;4194673;28;19925;-60
2023/09/06 01:31:16;;;;;;;;;;;;;;;25.34;49.98;101303.22;4193150;28;19937;-60
2023/09/06 01:33:17;;;;;;;;;;;;;;;25.34;49.69;101305.94;4194293;28;19929;-61
2023/09/06 01:35:19;;;;;;;;;;;;;;;25.33;49.64;101306.91;4194500;28;19951;-61
2023/09/06 01:37:23;;;;;;;;;;;;;;;25.32;49.70;101302.53;4194131;28;19925;-60
2023/09/06 01:39:26;;;;;;;;;;;;;;;25.32;49.82;101307.94;4194247;28;19928;-60
2023/09/06 01:41:27;;;;;;;;;;;;;;;25.32;50.00;101309.75;4193330;28;19935;-60
2023/09/06 01:43:31;;;;;;;;;;;;;;;25.31;50.18;101310.72;4194358;28;20015;-61
2023/09/06 01:45:35;;;;;;;;;;;;;;;25.30;49.79;101306.31;4194104;28;19936;-61
2023/09/06 01:47:36;;;;;;;;;;;;;;;25.29;49.89;101307.34;4209572;28;19932;-60
2023/09/06 01:49:38;;;;;;;;;;;;;;;25.29;49.89;101310.88;4194321;28;19925;-60
2023/09/06 01:51:39;;;;;;;;;;;;;;;25.27;50.00;101310.16;4193485;28;19925;-60
2023/09/06 01:53:41;;;;;;;;;;;;;;;25.27;49.87;101315.53;4194117;28;19925;-60
2023/09/06 01:55:43;;;;;;;;;;;;;;;25.26;50.22;101307.59;4194345;28;19964;-60
2023/09/06 01:57:45;;;;;;;;;;;;;;;25.25;49.98;101314.84;4194292;28;19967;-60
2023/09/06 01:59:50;;;;;;;;;;;;;;;25.15;50.04;101289.72;4193822;28;20465;-60
2023/09/06 02:01:54;;;;;;;;;;;;;;;25.24;49.94;101310.44;4175464;28;19932;-59
2023/09/06 02:03:56;;;;;;;;;;;;;;;25.24;49.96;101309.56;4194165;28;20365;-60
2023/09/06 02:05:58;;;;;;;;;;;;;;;25.23;50.13;101308.72;4193988;28;20465;-60
2023/09/06 02:07:59;;;;;;;;;;;;;;;25.23;49.88;101302.50;4194317;28;20043;-60
2023/09/06 02:10:02;;;;;;;;;;;;;;;25.22;49.94;101311.56;4194211;28;19925;-60
2023/09/06 02:12:05;;;;;;;;;;;;;;;25.21;50.02;101321.47;4193175;28;20305;-60
2023/09/06 02:14:07;;;;;;;;;;;;;;;25.20;50.16;101317.94;4176085;28;19925;-60
2023/09/06 02:16:08;;;;;;;;;;;;;;;25.19;50.37;101318.91;4194160;27;20400;-60
2023/09/06 02:18:15;;;;;;;;;;;;;;;25.18;50.24;101319.91;4193738;28;19932;-60
2023/09/06 02:20:19;;;;;;;;;;;;;;;25.18;49.97;101316.38;4193821;28;19925;-60
2023/09/06 02:22:22;;;;;;;;;;;;;;;25.17;50.51;101314.66;4193189;28;19994;-60
2023/09/06 02:24:23;;;;;;;;;;;;;;;25.16;50.18;101319.19;4194001;28;20411;-60
2023/09/06 02:26:25;;;;;;;;;;;;;;;25.16;50.23;101321.03;4193947;28;19925;-60
2023/09/06 02:28:26;;;;;;;;;;;;;;;25.14;50.07;101318.47;4193853;28;19956;-59
2023/09/06 02:30:29;;;;;;;;;;;;;;;25.14;50.49;101323.00;4193576;28;19936;-61
2023/09/06 02:32:31;;;;;;;;;;;;;;;25.13;50.16;101314.09;4209161;28;19930;-60
2023/09/06 02:34:34;;;;;;;;;;;;;;;25.12;50.29;101315.06;4194100;28;19931;-59
2023/09/06 02:36:35;;;;;;;;;;;;;;;25.12;50.30;101314.22;4193968;28;19938;-60
2023/09/06 02:38:37;;;;;;;;;;;;;;;25.11;50.39;101317.91;4193893;28;19930;-60
2023/09/06 02:40:40;;;;;;;;;;;;;;;25.11;50.54;101317.91;4193218;28;20416;-61
2023/09/06 02:42:44;;;;;;;;;;;;;;;25.10;50.28;101311.66;4193312;28;20388;-61
2023/09/06 02:44:46;;;;;;;;;;;;;;;25.08;50.45;101308.25;4193827;28;19928;-60
2023/09/06 02:46:52;;;;;;;;;;;;;;;25.08;50.54;101308.25;4193902;28;19963;-61
2023/09/06 02:48:55;;;;;;;;;;;;;;;25.08;50.66;101304.69;4193872;28;19932;-61
2023/09/06 02:50:59;;;;;;;;;;;;;;;25.07;51.02;101305.69;4195044;28;19939;-61
2023/09/06 02:53:03;;;;;;;;;;;;;;;25.07;50.54;101311.06;4196588;28;19977;-60
2023/09/06 02:55:10;;;;;;;;;;;;;;;25.07;50.86;101313.75;4196533;28;19925;-61
2023/09/06 02:57:14;;;;;;;;;;;;;;;25.07;51.00;101313.75;4196198;28;20394;-61
2023/09/06 02:59:15;;;;;;;;;;;;;;;25.06;50.85;101312.91;4196373;28;20019;-61
2023/09/06 03:01:20;;;;;;;;;;;;;;;25.06;50.80;101320.16;4195618;28;19924;-61
2023/09/06 03:03:26;;;;;;;;;;;;;;;25.04;50.68;101315.75;4196473;28;19956;-60
2023/09/06 03:05:41;;;;;;;;;;;;;;;25.04;50.65;101312.19;4196533;28;19925;-60
2023/09/06 03:07:44;;;;;;;;;;;;;;;25.03;50.69;101313.16;4196600;28;20286;-60
2023/09/06 03:09:46;;;;;;;;;;;;;;;25.02;50.80;101311.50;4196476;28;19931;-60
2023/09/06 03:11:48;;;;;;;;;;;;;;;25.01;50.75;101316.00;4195239;28;19925;-60
2023/09/06 03:13:55;;;;;;;;;;;;;;;25.01;50.93;101307.09;4196321;28;20332;-60
2023/09/06 03:15:59;;;;;;;;;;;;;;;25.00;50.87;101308.91;4195970;28;20370;-60
2023/09/06 03:18:02;;;;;;;;;;;;;;;25.01;50.89;101315.16;4196086;28;20308;-60
2023/09/06 03:20:18;;;;;;;;;;;;;;;25.00;50.73;101313.47;4196367;28;19929;-61
2023/09/06 03:22:23;;;;;;;;;;;;;;;24.99;51.00;101309.91;4195434;28;20685;-60
2023/09/06 03:24:24;;;;;;;;;;;;;;;24.98;50.84;101316.28;4196290;28;19952;-61
2023/09/06 03:26:26;;;;;;;;;;;;;;;24.99;51.18;101311.75;4195820;28;19932;-60
2023/09/06 03:28:28;;;;;;;;;;;;;;;24.97;51.02;101309.19;4196176;28;20004;-61
2023/09/06 03:30:30;;;;;;;;;;;;;;;24.97;51.31;101308.34;4196135;28;20349;-60
2023/09/06 03:32:32;;;;;;;;;;;;;;;24.97;51.22;101308.34;4195339;28;19928;-60
2023/09/06 03:34:34;;;;;;;;;;;;;;;24.97;51.01;101311.03;4196067;28;19924;-60
2023/09/06 03:36:35;;;;;;;;;;;;;;;24.96;51.32;101306.63;4195982;28;19925;-60
2023/09/06 03:38:37;;;;;;;;;;;;;;;24.95;50.95;101308.47;4196194;28;20007;-61
2023/09/06 03:40:42;;;;;;;;;;;;;;;24.94;51.24;101308.63;4195702;28;19953;-59
2023/09/06 03:42:43;;;;;;;;;;;;;;;24.94;51.10;101306.75;4195376;28;20027;-61
2023/09/06 03:44:46;;;;;;;;;;;;;;;24.93;50.88;101313.13;4195921;28;19924;-60
2023/09/06 03:46:48;;;;;;;;;;;;;;;24.93;51.00;101312.28;4195799;28;19932;-60
2023/09/06 03:48:50;;;;;;;;;;;;;;;24.92;51.46;101310.59;4178181;28;19928;-60
2023/09/06 03:51:02;;;;;;;;;;;;;;;24.92;51.37;101315.97;4195191;28;20349;-60
2023/09/06 03:53:04;;;;;;;;;;;;;;;24.92;51.40;101318.66;4177920;28;19932;-61
2023/09/06 03:55:09;;;;;;;;;;;;;;;24.90;51.13;101313.41;4195508;28;19931;-60
2023/09/06 03:57:14;;;;;;;;;;;;;;;24.91;51.23;101314.25;4195999;28;19977;-60
2023/09/06 03:59:16;;;;;;;;;;;;;;;24.88;51.23;101318.91;4195878;28;19947;-60
2023/09/06 04:01:19;;;;;;;;;;;;;;;24.90;51.20;101320.63;4194686;28;19929;-60
2023/09/06 04:03:22;;;;;;;;;;;;;;;24.88;51.48;101316.22;4195698;28;19932;-60
2023/09/06 04:05:25;;;;;;;;;;;;;;;24.87;51.42;101316.34;4195846;28;20309;-60
2023/09/06 04:07:27;;;;;;;;;;;;;;;24.86;51.62;101318.22;4195812;28;19947;-59
2023/09/06 04:09:37;;;;;;;;;;;;;;;24.86;51.69;101322.72;4195659;28;20298;-60
2023/09/06 04:11:39;;;;;;;;;;;;;;;24.85;51.47;101321.03;4194820;28;20416;-60
2023/09/06 04:13:42;;;;;;;;;;;;;;;24.85;51.40;101323.72;4195740;28;20316;-60
2023/09/06 04:15:44;;;;;;;;;;;;;;;24.84;51.66;101330.94;4195366;28;19924;-60
2023/09/06 04:17:45;;;;;;;;;;;;;;;24.82;51.50;101322.13;4195471;28;19925;-61
2023/09/06 04:19:47;;;;;;;;;;;;;;;24.83;51.58;101328.38;4178010;28;19925;-60
2023/09/06 04:21:48;;;;;;;;;;;;;;;24.82;51.79;101332.06;4194598;28;19932;-61
2023/09/06 04:23:50;;;;;;;;;;;;;;;24.81;51.88;101322.28;4195647;28;20019;-60
2023/09/06 04:25:51;;;;;;;;;;;;;;;24.82;51.56;101327.50;4195228;28;20334;-61
2023/09/06 04:27:55;;;;;;;;;;;;;;;24.80;51.82;101328.63;4195497;28;19928;-60
2023/09/06 04:29:56;;;;;;;;;;;;;;;24.80;51.56;101325.94;4195327;28;20051;-60
2023/09/06 04:31:58;;;;;;;;;;;;;;;24.78;51.94;101323.41;4194335;28;20008;-61
2023/09/06 04:34:01;;;;;;;;;;;;;;;24.79;51.68;101321.53;4195470;28;20363;-60
2023/09/06 04:36:04;;;;;;;;;;;;;;;24.77;51.73;101319.00;4195439;28;19945;-60
2023/09/06 04:38:09;;;;;;;;;;;;;;;24.78;51.74;101325.25;4195392;28;19924;-60
2023/09/06 04:40:11;;;;;;;;;;;;;;;24.77;51.96;101323.53;4194949;28;20296;-60
2023/09/06 04:42:13;;;;;;;;;;;;;;;24.77;52.00;101323.53;4194369;28;19969;-60
2023/09/06 04:44:15;;;;;;;;;;;;;;;24.76;51.70;101311.06;4195239;28;19972;-60
2023/09/06 04:46:16;;;;;;;;;;;;;;;24.76;51.78;101319.13;4195178;28;19924;-61
2023/09/06 04:48:18;;;;;;;;;;;;;;;24.69;51.64;101313.41;4195220;28;19928;-61
2023/09/06 04:50:19;;;;;;;;;;;;;;;24.74;51.86;101321.09;4195164;28;19925;-61
2023/09/06 04:52:22;;;;;;;;;;;;;;;24.76;51.80;101324.53;4194199;28;19939;-61
2023/09/06 04:54:24;;;;;;;;;;;;;;;24.74;52.01;101337.25;4194623;28;20106;-61
2023/09/06 04:56:25;;;;;;;;;;;;;;;24.72;51.97;101327.47;4210622;28;19928;-60
2023/09/06 04:58:27;;;;;;;;;;;;;;;24.72;52.10;101332.00;4194982;28;19932;-61
2023/09/06 05:00:35;;;;;;;;;;;;;;;24.71;52.20;101328.44;4194864;28;19981;-61
2023/09/06 05:02:37;;;;;;;;;;;;;;;24.71;51.54;101330.28;4176102;28;19925;-60
2023/09/06 05:04:39;;;;;;;;;;;;;;;24.70;51.78;101337.53;4194934;28;19925;-60
2023/09/06 05:06:40;;;;;;;;;;;;;;;24.71;51.86;101332.97;4194938;28;19966;-59
2023/09/06 05:08:42;;;;;;;;;;;;;;;24.70;52.16;101331.28;4210191;28;19937;-60
2023/09/06 05:10:43;;;;;;;;;;;;;;;24.69;51.88;101333.13;4194696;28;20016;-59
2023/09/06 05:12:45;;;;;;;;;;;;;;;24.69;52.01;101332.25;4193010;28;20027;-60
2023/09/06 05:14:47;;;;;;;;;;;;;;;24.68;51.95;101331.41;4194735;28;19924;-61
2023/09/06 05:16:49;;;;;;;;;;;;;;;24.68;52.12;101335.91;4194698;28;19938;-61
2023/09/06 05:18:51;;;;;;;;;;;;;;;24.68;52.06;101330.53;4194547;28;19928;-61
2023/09/06 05:20:52;;;;;;;;;;;;;;;24.67;51.87;101328.84;4194801;28;19924;-61
2023/09/06 05:22:55;;;;;;;;;;;;;;;24.66;52.30;101333.38;4193410;28;20460;-61
2023/09/06 05:24:56;;;;;;;;;;;;;;;24.66;51.88;101327.16;4194851;28;19962;-61
2023/09/06 05:26:58;;;;;;;;;;;;;;;24.66;51.94;101332.53;4194743;28;19928;-61
2023/09/06 05:29:00;;;;;;;;;;;;;;;24.64;52.33;101329.94;4194605;28;20596;-61
2023/09/06 05:31:01;;;;;;;;;;;;;;;24.65;51.96;101337.00;4194537;28;19936;-61
2023/09/06 05:33:03;;;;;;;;;;;;;;;24.65;52.12;101338.84;4193856;28;19931;-61
2023/09/06 05:35:05;;;;;;;;;;;;;;;24.64;52.13;101331.78;4194529;28;19925;-61
2023/09/06 05:37:08;;;;;;;;;;;;;;;24.63;52.03;101338.13;4194460;28;19946;-61
2023/09/06 05:39:12;;;;;;;;;;;;;;;24.62;52.13;101339.09;4194388;28;19925;-61
2023/09/06 05:41:14;;;;;;;;;;;;;;;24.61;52.35;101332.88;4193889;28;20409;-61
2023/09/06 05:43:16;;;;;;;;;;;;;;;24.61;52.37;101338.25;4194508;28;19947;-61
2023/09/06 05:45:18;;;;;;;;;;;;;;;24.61;52.18;101337.44;4194593;28;19931;-60
2023/09/06 05:47:19;;;;;;;;;;;;;;;24.60;52.30;101344.63;4194542;28;19925;-61
2023/09/06 05:49:21;;;;;;;;;;;;;;;24.60;52.30;101341.09;4194660;28;19973;-61
2023/09/06 05:51:23;;;;;;;;;;;;;;;24.59;52.29;101350.97;4193190;28;20305;-61
2023/09/06 05:53:26;;;;;;;;;;;;;;;24.60;52.10;101349.16;4194098;28;19950;-61
2023/09/06 05:55:28;;;;;;;;;;;;;;;24.59;52.24;101350.97;4194321;28;19925;-61
2023/09/06 05:57:30;;;;;;;;;;;;;;;24.60;52.12;101346.47;4194419;28;19924;-61
2023/09/06 05:59:32;;;;;;;;;;;;;;;24.59;52.48;101345.59;4194236;28;19924;-61
2023/09/06 06:01:33;;;;;;;;;;;;;;;24.59;52.16;101356.38;4193362;28;20019;-61
2023/09/06 06:03:37;;;;;;;;;;;;;;;24.59;52.60;101352.84;4194163;28;20305;-61
2023/09/06 06:05:39;;;;;;;;;;;;;;;24.57;52.35;101352.97;4194001;28;19977;-61
2023/09/06 06:07:44;;;;;;;;;;;;;;;24.57;52.12;101352.97;4194243;28;19924;-61
2023/09/06 06:09:45;;;;;;;;;;;;;;;24.57;52.12;101352.97;4194281;28;19976;-61
2023/09/06 06:11:47;;;;;;;;;;;;;;;24.57;52.36;101355.66;4193562;28;20023;-61
2023/09/06 06:13:49;;;;;;;;;;;;;;;24.56;52.33;101354.78;4194255;28;19946;-61
2023/09/06 06:16:08;;;;;;;;;;;;;;;24.56;52.20;101351.25;4194106;28;19924;-61
2023/09/06 06:18:12;;;;;;;;;;;;;;;24.55;52.20;101355.78;4193964;27;19928;-61
2023/09/06 06:20:13;;;;;;;;;;;;;;;24.56;52.42;101360.16;4193646;28;20011;-61
2023/09/06 06:22:15;;;;;;;;;;;;;;;24.55;52.19;101365.69;4193306;28;19925;-62
2023/09/06 06:24:17;;;;;;;;;;;;;;;24.55;52.30;101363.84;4195247;28;19931;-61
2023/09/06 06:26:20;;;;;;;;;;;;;;;24.56;52.45;101370.09;4197226;28;19928;-61
2023/09/06 06:28:21;;;;;;;;;;;;;;;24.56;52.19;101362.84;4197060;28;20441;-61
2023/09/06 06:30:23;;;;;;;;;;;;;;;24.55;52.21;101371.06;4197042;28;20369;-61
2023/09/06 06:32:25;;;;;;;;;;;;;;;24.55;52.58;101368.38;4195858;28;19925;-61
2023/09/06 06:34:26;;;;;;;;;;;;;;;24.55;52.55;101371.91;4196991;28;20304;-62
2023/09/06 06:36:30;;;;;;;;;;;;;;;24.54;52.64;101370.19;4196660;28;20377;-61
2023/09/06 06:38:31;;;;;;;;;;;;;;;24.54;52.15;101375.56;4197008;28;19928;-61
2023/09/06 06:40:34;;;;;;;;;;;;;;;24.55;52.19;101371.91;4197034;28;19924;-61
2023/09/06 06:42:39;;;;;;;;;;;;;;;24.54;52.27;101372.88;4195830;28;19925;-61
2023/09/06 06:44:47;;;;;;;;;;;;;;;24.55;52.56;101382.66;4196980;28;19930;-61
2023/09/06 06:46:49;;;;;;;;;;;;;;;24.54;52.47;101372.88;4196830;28;19924;-61
2023/09/06 06:48:50;;;;;;;;;;;;;;;24.54;52.21;101377.41;4196705;28;19962;-61
2023/09/06 06:50:52;;;;;;;;;;;;;;;24.54;52.53;101375.56;4196529;28;19948;-61
2023/09/06 06:52:54;;;;;;;;;;;;;;;24.54;52.34;101380.94;4195813;28;19924;-60
2023/09/06 06:54:55;;;;;;;;;;;;;;;24.54;52.34;101372.88;4196494;28;19931;-60
2023/09/06 06:56:57;;;;;;;;;;;;;;;24.53;52.65;101370.34;4212145;28;20326;-61
2023/09/06 06:58:58;;;;;;;;;;;;;;;24.53;52.28;101379.28;4196654;28;20475;-60
2023/09/06 07:01:00;;;;;;;;;;;;;;;24.54;52.22;101372.03;4196537;28;20288;-59
2023/09/06 07:03:03;;;;;;;;;;;;;;;24.54;52.58;101372.03;4195735;28;19932;-60
2023/09/06 07:05:04;;;;;;;;;;;;;;;24.54;52.32;101378.25;4196101;28;19934;-60
2023/09/06 07:07:06;;;;;;;;;;;;;;;24.54;52.33;101388.19;4196412;28;19925;-60
2023/09/06 07:09:07;;;;;;;;;;;;;;;24.54;52.38;101382.78;4196514;28;19924;-61
2023/09/06 07:11:09;;;;;;;;;;;;;;;24.53;52.27;101386.47;4196494;28;20338;-60
2023/09/06 07:13:15;;;;;;;;;;;;;;;24.54;52.21;101386.31;4195635;28;19975;-61
2023/09/06 07:15:17;;;;;;;;;;;;;;;24.55;52.42;101388.03;4196430;28;19924;-61
2023/09/06 07:17:18;;;;;;;;;;;;;;;24.54;52.38;101385.50;4196122;28;19928;-61
2023/09/06 07:19:20;;;;;;;;;;;;;;;24.55;52.34;101390.72;4196113;28;19928;-61
2023/09/06 07:21:22;;;;;;;;;;;;;;;24.54;52.31;101394.41;4196221;28;19928;-61
2023/09/06 07:23:24;;;;;;;;;;;;;;;24.54;52.31;101389.03;4195578;28;20368;-61
2023/09/06 07:25:27;;;;;;;;;;;;;;;24.55;52.46;101397.97;4196274;28;19925;-61
2023/09/06 07:27:29;;;;;;;;;;;;;;;24.56;52.50;101394.28;4196068;28;20416;-61
2023/09/06 07:29:30;;;;;;;;;;;;;;;24.56;52.42;101399.66;4196050;28;20019;-60
2023/09/06 07:31:32;;;;;;;;;;;;;;;24.56;52.12;101399.66;4195514;28;19928;-61
2023/09/06 07:33:34;;;;;;;;;;;;;;;24.57;52.31;101398.69;4195631;28;19929;-61
2023/09/06 07:35:35;;;;;;;;;;;;;;;24.56;52.21;101400.50;4195366;28;19924;-61
2023/09/06 07:37:37;;;;;;;;;;;;;;;24.58;52.17;101397.69;4196076;28;19928;-61
2023/09/06 07:39:39;;;;;;;;;;;;;;;24.58;52.19;101404.91;4196131;28;19976;-61
2023/09/06 07:41:40;;;;;;;;;;;;;;;24.58;52.41;101402.22;4195351;28;20016;-61
2023/09/06 07:43:43;;;;;;;;;;;;;;;24.59;52.00;101401.25;4196041;27;19982;-60
2023/09/06 07:45:44;;;;;;;;;;;;;;;24.60;52.01;101405.63;4196137;28;19924;-61
2023/09/06 07:47:46;;;;;;;;;;;;;;;24.60;52.28;101400.25;4195872;28;19929;-61
2023/09/06 07:49:48;;;;;;;;;;;;;;;24.60;52.08;101403.78;4195960;28;19924;-61
2023/09/06 07:51:50;;;;;;;;;;;;;;;24.60;52.31;101398.41;4195169;28;20433;-61
2023/09/06 07:53:51;;;;;;;;;;;;;;;24.61;52.42;101404.66;4195706;28;20011;-61
2023/09/06 07:55:53;;;;;;;;;;;;;;;24.62;52.16;101406.34;4195645;28;19925;-61
2023/09/06 07:57:55;;;;;;;;;;;;;;;24.62;52.11;101407.22;4196046;28;19928;-62
2023/09/06 07:59:56;;;;;;;;;;;;;;;24.63;52.03;101408.94;4195729;28;19925;-61
2023/09/06 08:01:58;;;;;;;;;;;;;;;24.64;52.14;101412.44;4194336;28;20331;-62
2023/09/06 08:03:59;;;;;;;;;;;;;;;24.63;52.17;101411.63;4195668;28;19980;-61
2023/09/06 08:06:04;;;;;;;;;;;;;;;24.65;52.34;101417.69;4195666;28;20396;-62
2023/09/06 08:08:06;;;;;;;;;;;;;;;24.66;52.21;101415.91;4195750;28;19924;-61
2023/09/06 08:10:09;;;;;;;;;;;;;;;24.67;52.04;101415.78;4195707;28;20288;-62
2023/09/06 08:12:11;;;;;;;;;;;;;;;24.67;52.07;101421.16;4210194;28;20365;-61
2023/09/06 08:14:12;;;;;;;;;;;;;;;24.68;52.24;101422.88;4194046;27;20301;-62
2023/09/06 08:16:14;;;;;;;;;;;;;;;24.69;51.98;101413.81;4192328;28;20399;-61
2023/09/06 08:18:16;;;;;;;;;;;;;;;24.70;52.18;101412.84;4195204;28;20305;-62
2023/09/06 08:20:18;;;;;;;;;;;;;;;24.72;52.03;101420.75;4195156;28;19936;-64
2023/09/06 08:22:20;;;;;;;;;;;;;;;24.74;52.10;101418.81;4201357;27;19988;-62
2023/09/06 08:24:36;;;;;;;;;;;;;;;24.76;52.19;101427.59;4212097;28;19976;-63
2023/09/06 08:26:37;;;;;;;;;;;;;;;24.77;51.76;101423.06;4194227;28;19929;-62
2023/09/06 08:28:39;;;;;;;;;;;;;;;24.78;51.89;101412.16;4194029;28;19956;-61
2023/09/06 08:30:43;;;;;;;;;;;;;;;24.81;52.15;101411.94;4211623;28;19935;-60
2023/09/06 08:32:46;;;;;;;;;;;;;;;24.82;52.18;101416.28;4211022;28;19924;-61
2023/09/06 08:34:49;;;;;;;;;;;;;;;24.84;52.12;101418.88;4211955;28;20292;-61
2023/09/06 08:36:51;;;;;;;;;;;;;;;24.94;52.19;101417.09;4201027;27;19967;-62
2023/09/06 08:38:53;;;;;;;;;;;;;;;25.04;51.83;101415.31;4187661;27;19928;-60
2023/09/06 08:40:54;;;;;;;;;;;;;;;25.13;51.79;101418.19;4194192;28;19934;-61
2023/09/06 08:43:02;;;;;;;;;;;;;;;25.20;51.34;101424.75;4209297;28;20324;-61
2023/09/06 08:45:04;;;;;;;;;;;;;;;25.25;52.34;101427.91;4194679;28;19929;-61
2023/09/06 08:47:08;;;;;;;;;;;;;;;25.35;52.09;101431.50;4194367;28;19931;-61
2023/09/06 08:49:11;;;;;;;;;;;;;;;25.42;51.66;101415.69;4194371;28;19931;-61
2023/09/06 08:51:14;;;;;;;;;;;;;;;25.48;51.93;101416.97;4195015;28;19928;-60
2023/09/06 08:53:18;;;;;;;;;;;;;;;25.54;51.86;101426.38;4193986;28;20356;-60
2023/09/06 08:55:19;;;;;;;;;;;;;;;25.59;52.25;101419.59;4194840;28;19932;-60
2023/09/06 08:57:21;;;;;;;;;;;;;;;25.64;52.42;101432.66;4194663;28;19924;-62
2023/09/06 08:59:24;;;;;;;;;;;;;;;25.66;52.09;101422.56;4194518;28;19940;-61
2023/09/06 09:01:26;;;;;;;;;;;;;;;25.68;51.77;101424.13;4194433;28;19958;-61
2023/09/06 09:03:28;;;;;;;;;;;;;;;25.70;51.77;101426.72;4175912;28;20349;-61
2023/09/06 09:05:30;;;;;;;;;;;;;;;25.74;51.41;101430.84;4194996;28;19971;-60
2023/09/06 09:07:32;;;;;;;;;;;;;;;25.78;51.59;101429.56;4194565;28;20425;-60
2023/09/06 09:09:33;;;;;;;;;;;;;;;25.81;52.23;101428.47;4191627;27;19970;-66
2023/09/06 09:11:42;;;;;;;;;;;;;;;25.95;52.15;101419.13;4200081;28;19924;-60
2023/09/06 09:13:45;;;;;;;;;;;;;;;26.05;51.69;101422.69;4190379;28;19939;-61
2023/09/06 09:15:46;;;;;;;;;;;;;;;26.09;51.25;101416.06;4195100;28;20378;-60
2023/09/06 09:17:49;;;;;;;;;;;;;;;26.17;51.38;101412.66;4194160;27;20373;-61
2023/09/06 09:20:03;;;;;;;;;;;;;;;26.32;51.08;101421.22;4194577;28;19928;-59
2023/09/06 09:22:07;;;;;;;;;;;;;;;26.41;51.18;101417.66;4177307;28;19946;-62
2023/09/06 09:24:09;;;;;;;;;;;;;;;26.50;50.59;101423.19;4191107;28;19928;-59
2023/09/06 09:26:11;;;;;;;;;;;;;;;26.53;49.87;101415.66;4193133;28;20015;-60
2023/09/06 09:28:13;;;;;;;;;;;;;;;26.58;50.14;101415.25;4201157;28;19947;-65
2023/09/06 09:30:16;;;;;;;;;;;;;;;26.62;49.66;101417.53;4193584;28;20026;-65
2023/09/06 09:32:18;;;;;;;;;;;;;;;26.64;50.20;101409.28;4201265;28;19939;-64
2023/09/06 09:34:20;;;;;;;;;;;;;;;26.70;49.47;101415.94;4210642;28;19969;-59
2023/09/06 09:36:22;;;;;;;;;;;;;;;26.76;49.57;101407.31;4210387;28;19924;-62
2023/09/06 09:38:23;;;;;;;;;;;;;;;26.81;49.37;101415.81;4210504;28;19932;-61
2023/09/06 09:40:34;;;;;;;;;;;;;;;26.86;48.83;101408.13;4210718;28;19936;-61
2023/09/06 09:42:50;;;;;;;;;;;;;;;26.85;48.66;101410.97;4209521;28;19971;-69
2023/09/06 09:45:01;;;;;;;;;;;;;;;26.85;48.85;101413.69;4208612;28;19935;-62
2023/09/06 09:47:10;;;;;;;;;;;;;;;26.88;48.76;101416.94;4190373;28;20281;-60
2023/09/06 09:49:32;;;;;;;;;;;;;;;26.92;48.71;101415.66;4248241;27;19925;-63
2023/09/06 09:51:35;;;;;;;;;;;;;;;26.96;48.57;101409.97;4177047;28;20396;-63
2023/09/06 09:53:37;;;;;;;;;;;;;;;27.01;48.06;101413.06;4176524;28;19925;-61
2023/09/06 09:55:41;;;;;;;;;;;;;;;27.08;48.23;101417.72;4177981;28;19931;-63
2023/09/06 09:57:44;;;;;;;;;;;;;;;27.12;47.76;101414.75;4176952;28;19936;-61
2023/09/06 09:59:49;;;;;;;;;;;;;;;27.09;47.93;101415.91;4179664;28;20386;-61
2023/09/06 10:01:52;;;;;;;;;;;;;;;27.07;48.62;101407.97;4180607;28;19925;-63
2023/09/06 10:03:55;;;;;;;;;;;;;;;27.03;48.27;101411.94;4206137;28;19953;-61
2023/09/06 10:05:58;;;;;;;;;;;;;;;27.03;47.93;101403.84;4214100;28;19928;-64
2023/09/06 10:08:00;;;;;;;;;;;;;;;27.02;47.81;101409.38;4195945;28;19925;-62
2023/09/06 10:10:05;;;;;;;;;;;;;;;27.04;47.83;101410.94;4214050;28;19935;-63
2023/09/06 10:12:11;;;;;;;;;;;;;;;27.12;47.89;101410.19;4212820;28;20014;-62
2023/09/06 10:14:14;;;;;;;;;;;;;;;27.16;47.62;101408.06;4213499;28;19969;-61
2023/09/06 10:16:16;;;;;;;;;;;;;;;27.24;47.53;101403.63;4208698;28;19924;-60
2023/09/06 10:18:17;;;;;;;;;;;;;;;27.27;47.26;101397.09;4196857;27;20400;-62
2023/09/06 10:20:23;;;;;;;;;;;;;;;27.28;47.20;101393.41;4196767;28;20278;-62
2023/09/06 10:22:24;;;;;;;;;;;;;;;27.33;47.15;101393.78;4196073;27;20547;-61
2023/09/06 10:24:30;;;;;;;;;;;;;;;27.32;47.43;101391.25;4201874;28;19935;-63
2023/09/06 10:26:36;;;;;;;;;;;;;;;27.33;47.29;101388.41;4213287;28;19963;-63
2023/09/06 10:28:38;;;;;;;;;;;;;;;27.34;47.35;101394.63;4204457;28;19931;-62
2023/09/06 10:30:44;;;;;;;;;;;;;;;27.30;47.50;101391.38;4197006;28;19931;-61